In Rescue
 
Open Full Screen Window  High Contrast Mode
Wind Gusting 00 knots
07
November 19, 2019 11:58 AM CST
Weather Information
Wind Direction
  280 °
Wind Speed
  07 kt (8 mph)
Wind Gust
  00 kt (0 mph)
Altimeter
29.82 in
Visibility
10 SM
Temperature
05° C
41° F
Dewpoint
03° C
37° F
Humidity
87%
1hr Rain Fall
00.00 in.
24hr Rain Fall
00.04 in.
Sky Condition
Overcast @ 4,000 ft
Broken @ 2,100 ft
MVFR

METAR KHCD 191758Z AUTO 28007KT 10SM BKN021 OVC040 05/03 A2982 RMK AO2 T00460031 10046 20001

FAA Disclaimer: The data displayed is for advisory purposes only and is not to be used for flight planning or operations.